createdAt,value
2022-09-28T00:01:20.689Z,3.70
2022-09-28T00:03:50.571Z,4.20
2022-09-28T00:06:24.302Z,3.70
2022-09-28T00:08:52.203Z,2.90
2022-09-28T00:11:22.411Z,4.43
2022-09-28T00:13:53.422Z,3.28
2022-09-28T00:16:23.986Z,3.47
2022-09-28T00:18:51.348Z,4.32
2022-09-28T00:21:25.442Z,3.67
2022-09-28T00:24:15.672Z,2.95
2022-09-28T00:26:55.306Z,4.13
2022-09-28T00:32:13.334Z,3.00
2022-09-28T00:34:45.810Z,2.53
2022-09-28T00:37:15.015Z,3.63
2022-09-28T00:39:42.470Z,1.90
2022-09-28T00:42:22.826Z,1.98
2022-09-28T00:44:51.730Z,1.80
2022-09-28T00:47:29.275Z,2.40
2022-09-28T00:50:04.373Z,4.63
2022-09-28T00:52:42.706Z,3.17
2022-09-28T00:55:44.983Z,2.38
2022-09-28T00:58:19.931Z,2.13
2022-09-28T01:00:46.770Z,3.83
2022-09-28T01:03:14.294Z,4.13
2022-09-28T01:05:41.631Z,3.63
2022-09-28T01:08:10.596Z,3.40
2022-09-28T01:10:40.540Z,2.03
2022-09-28T01:13:07.255Z,2.42
2022-09-28T01:15:49.322Z,2.00
2022-09-28T01:18:45.415Z,2.53
2022-09-28T01:21:21.383Z,4.13
2022-09-28T01:24:30.732Z,2.95
2022-09-28T01:27:26.658Z,3.05
2022-09-28T01:30:06.071Z,2.05
2022-09-28T01:33:06.682Z,2.08
2022-09-28T01:36:04.163Z,2.03
2022-09-28T01:38:42.607Z,2.33
2022-09-28T01:41:10.141Z,3.72
2022-09-28T01:43:43.105Z,2.47
2022-09-28T01:46:29.192Z,1.85
2022-09-28T01:49:04.859Z,1.80
2022-09-28T01:51:38.990Z,2.88
2022-09-28T01:54:14.649Z,3.72
2022-09-28T01:56:57.004Z,2.67
2022-09-28T01:59:30.229Z,1.92
2022-09-28T02:02:22.879Z,1.98
2022-09-28T02:05:18.502Z,2.50
2022-09-28T02:07:57.380Z,2.63
2022-09-28T02:10:35.830Z,3.40
2022-09-28T02:13:13.681Z,4.05
2022-09-28T02:15:40.269Z,3.28
2022-09-28T02:18:07.927Z,2.03
2022-09-28T02:20:38.895Z,1.50
2022-09-28T02:23:05.628Z,1.98
2022-09-28T02:25:42.823Z,3.88
2022-09-28T02:28:15.698Z,2.33
2022-09-28T02:30:44.711Z,2.60
2022-09-28T02:33:26.875Z,3.45
2022-09-28T02:35:54.303Z,3.05
2022-09-28T02:38:20.925Z,1.92
2022-09-28T02:41:04.847Z,1.60
2022-09-28T02:43:56.110Z,1.30
2022-09-28T02:49:25.767Z,1.75
2022-09-28T02:52:26.215Z,2.92
2022-09-28T02:55:39.974Z,2.65
2022-09-28T02:58:34.001Z,3.83
2022-09-28T03:01:35.086Z,3.85
2022-09-28T03:04:37.535Z,2.40
2022-09-28T03:07:24.125Z,1.58
2022-09-28T03:10:06.373Z,4.43
2022-09-28T03:12:34.246Z,3.30
2022-09-28T03:15:13.722Z,1.92
2022-09-28T03:17:40.347Z,2.55
2022-09-28T03:20:07.522Z,1.30
2022-09-28T03:22:34.084Z,1.60
2022-09-28T03:25:00.637Z,1.85
2022-09-28T03:27:27.228Z,2.28
2022-09-28T03:29:53.798Z,1.55
2022-09-28T03:32:20.393Z,1.63
2022-09-28T03:34:47.087Z,1.20
2022-09-28T03:37:13.730Z,1.27
2022-09-28T03:39:40.368Z,2.28
2022-09-28T03:42:07.113Z,2.28
2022-09-28T03:44:33.686Z,1.33
2022-09-28T03:47:00.242Z,1.17
2022-09-28T03:49:26.830Z,2.75
2022-09-28T03:51:53.453Z,2.33
2022-09-28T03:54:39.614Z,1.30
2022-09-28T03:57:13.293Z,3.40
2022-09-28T03:59:39.879Z,2.20
2022-09-28T04:02:06.427Z,2.17
2022-09-28T04:04:33.236Z,1.10
2022-09-28T04:07:00.217Z,3.72
2022-09-28T04:09:26.796Z,4.40
2022-09-28T04:12:03.988Z,3.38
2022-09-28T04:14:30.957Z,5.10
2022-09-28T04:16:57.594Z,3.60
2022-09-28T04:19:24.370Z,4.10
2022-09-28T04:21:51.982Z,7.00
2022-09-28T04:24:20.242Z,4.75
2022-09-28T04:26:46.820Z,5.10
2022-09-28T04:29:16.554Z,2.20
2022-09-28T04:31:50.705Z,4.95
2022-09-28T04:34:20.961Z,2.70
2022-09-28T04:36:48.974Z,3.67
2022-09-28T04:39:19.453Z,3.35
2022-09-28T04:41:48.983Z,4.32
2022-09-28T04:44:15.997Z,3.13
2022-09-28T04:46:42.554Z,2.10
2022-09-28T04:49:32.949Z,1.95
2022-09-28T04:52:55.836Z,2.43
2022-09-28T04:55:32.534Z,2.60
2022-09-28T04:58:02.786Z,5.07
2022-09-28T05:00:35.869Z,4.80
2022-09-28T05:03:02.689Z,3.28
2022-09-28T05:05:29.217Z,2.95
2022-09-28T05:07:59.193Z,2.92
2022-09-28T05:10:26.708Z,4.10
2022-09-28T05:12:53.390Z,3.78
2022-09-28T05:15:19.942Z,3.88
2022-09-28T05:17:46.465Z,4.47
2022-09-28T05:20:13.112Z,3.05
2022-09-28T05:22:39.697Z,2.70
2022-09-28T05:25:06.590Z,2.70
2022-09-28T05:27:33.097Z,2.58
2022-09-28T05:29:59.696Z,2.92
2022-09-28T05:32:26.250Z,1.80
2022-09-28T05:34:52.825Z,2.30
2022-09-28T05:37:19.359Z,1.80
2022-09-28T05:39:45.859Z,2.60
2022-09-28T05:42:12.465Z,2.92
2022-09-28T05:44:39.043Z,3.38
2022-09-28T05:47:05.724Z,4.50
2022-09-28T05:49:32.542Z,4.82
2022-09-28T05:51:59.149Z,5.85
2022-09-28T05:54:28.917Z,3.10
2022-09-28T05:56:55.553Z,5.68
2022-09-28T05:59:22.133Z,3.45
2022-09-28T06:01:48.799Z,3.28
2022-09-28T06:04:16.395Z,3.00
2022-09-28T06:06:43.153Z,5.10
2022-09-28T06:09:10.007Z,2.45
2022-09-28T06:11:36.613Z,3.38
2022-09-28T06:14:04.018Z,3.83
2022-09-28T06:16:31.121Z,4.93
2022-09-28T06:18:57.967Z,2.20
2022-09-28T06:21:24.718Z,2.22
2022-09-28T06:23:51.677Z,3.35
2022-09-28T06:26:19.869Z,3.65
2022-09-28T06:28:47.130Z,4.60
2022-09-28T06:31:13.989Z,3.15
2022-09-28T06:33:42.043Z,1.90
2022-09-28T06:36:10.657Z,4.65
2022-09-28T06:38:38.155Z,2.35
2022-09-28T06:41:05.389Z,1.83
2022-09-28T06:43:34.575Z,2.55
2022-09-28T06:46:02.813Z,2.35
2022-09-28T06:48:29.633Z,2.40
2022-09-28T06:50:56.185Z,2.85
2022-09-28T06:53:23.005Z,1.85
2022-09-28T06:55:49.705Z,3.53
2022-09-28T06:58:19.684Z,3.35
2022-09-28T07:00:50.171Z,2.55
2022-09-28T07:03:23.065Z,1.50
2022-09-28T07:05:53.906Z,3.38
2022-09-28T07:08:25.929Z,1.05
2022-09-28T07:10:56.926Z,1.13
2022-09-28T07:13:48.474Z,1.30
2022-09-28T07:16:16.102Z,2.05
2022-09-28T07:18:42.802Z,2.10
2022-09-28T07:21:14.418Z,2.88
2022-09-28T07:23:53.945Z,2.63
2022-09-28T07:26:24.401Z,2.30
2022-09-28T07:28:52.324Z,2.25
2022-09-28T07:31:18.918Z,2.20
2022-09-28T07:33:47.100Z,2.47
2022-09-28T07:36:17.792Z,2.20
2022-09-28T07:38:44.356Z,2.05
2022-09-28T07:41:16.726Z,1.67
2022-09-28T07:43:45.374Z,2.17
2022-09-28T07:46:12.231Z,2.58
2022-09-28T07:48:42.157Z,1.55
2022-09-28T07:51:09.902Z,1.60
2022-09-28T07:53:38.358Z,1.48
2022-09-28T07:56:09.281Z,4.28
2022-09-28T07:58:39.241Z,3.25
2022-09-28T08:01:12.255Z,0.90
2022-09-28T08:03:39.491Z,1.10
2022-09-28T08:06:11.109Z,1.75
2022-09-28T08:08:37.867Z,1.15
2022-09-28T08:11:07.227Z,0.93
2022-09-28T08:13:33.889Z,2.15
2022-09-28T08:16:02.183Z,1.10
2022-09-28T08:18:30.067Z,1.00
2022-09-28T08:21:15.421Z,1.13
2022-09-28T08:23:42.083Z,1.00
2022-09-28T08:26:13.283Z,1.02
2022-09-28T08:28:43.443Z,3.03
2022-09-28T08:31:10.104Z,1.10
2022-09-28T08:33:37.094Z,1.00
2022-09-28T08:36:06.928Z,1.20
2022-09-28T08:38:33.458Z,1.23
2022-09-28T08:41:39.886Z,2.45
2022-09-28T08:44:24.111Z,1.58
2022-09-28T08:47:05.562Z,1.20
2022-09-28T08:52:25.928Z,0.88
2022-09-28T08:55:06.309Z,1.50
2022-09-28T08:57:50.713Z,2.90
2022-09-28T09:00:33.930Z,2.60
2022-09-28T09:03:09.341Z,1.23
2022-09-28T09:06:09.452Z,1.13
2022-09-28T09:09:15.336Z,1.20
2022-09-28T09:12:04.053Z,1.23
2022-09-28T09:14:51.090Z,1.15
2022-09-28T09:17:47.835Z,1.02
2022-09-28T09:20:41.231Z,1.60
2022-09-28T09:23:34.682Z,1.83
2022-09-28T09:26:25.532Z,1.50
2022-09-28T09:29:27.957Z,2.80
2022-09-28T09:32:16.205Z,1.20
2022-09-28T09:35:14.936Z,2.08
2022-09-28T09:38:16.379Z,0.90
2022-09-28T09:41:40.816Z,1.35
2022-09-28T09:44:24.989Z,1.45
2022-09-28T09:47:38.084Z,1.00
2022-09-28T09:50:29.783Z,1.50
2022-09-28T09:53:24.291Z,1.60
2022-09-28T09:56:00.371Z,2.25
2022-09-28T09:58:46.318Z,1.10
2022-09-28T10:01:18.986Z,1.80
2022-09-28T10:03:48.644Z,1.35
2022-09-28T10:06:37.497Z,1.20
2022-09-28T10:09:13.857Z,1.17
2022-09-28T10:11:46.061Z,1.23
2022-09-28T10:14:22.127Z,1.40
2022-09-28T10:16:53.182Z,1.33
2022-09-28T10:22:04.863Z,1.20
2022-09-28T10:24:38.553Z,1.38
2022-09-28T10:27:16.989Z,1.42
2022-09-28T10:29:54.153Z,1.13
2022-09-28T10:32:27.296Z,1.00
2022-09-28T10:35:16.913Z,1.98
2022-09-28T10:37:52.229Z,0.93
2022-09-28T10:40:47.826Z,2.22
2022-09-28T10:43:34.545Z,1.67
2022-09-28T10:46:07.549Z,1.38
2022-09-28T10:48:51.332Z,1.67
2022-09-28T10:51:18.497Z,1.55
2022-09-28T10:54:04.036Z,1.75
2022-09-28T10:56:37.436Z,1.75
2022-09-28T10:59:24.218Z,1.50
2022-09-28T11:02:18.536Z,2.50
2022-09-28T11:04:55.188Z,1.60
2022-09-28T11:07:32.618Z,1.17
2022-09-28T11:10:01.340Z,1.15
2022-09-28T11:12:43.241Z,1.58
2022-09-28T11:15:25.808Z,1.70
2022-09-28T11:17:52.876Z,1.95
2022-09-28T11:20:27.727Z,2.60
2022-09-28T11:23:16.755Z,1.85
2022-09-28T11:25:43.815Z,0.90
2022-09-28T11:28:24.809Z,1.02
2022-09-28T11:33:30.574Z,1.25
2022-09-28T11:36:18.242Z,2.22
2022-09-28T11:39:32.292Z,2.40
2022-09-28T11:42:17.356Z,2.55
2022-09-28T11:44:49.405Z,0.93
2022-09-28T11:47:41.279Z,2.80
2022-09-28T11:50:45.045Z,1.15
2022-09-28T11:53:30.901Z,0.85
2022-09-28T11:56:22.301Z,1.10
2022-09-28T11:58:59.898Z,1.02
2022-09-28T12:01:53.258Z,2.22
2022-09-28T12:04:38.938Z,2.40
2022-09-28T12:07:31.446Z,1.70
2022-09-28T12:10:17.264Z,1.20
2022-09-28T12:12:55.092Z,1.25
2022-09-28T12:15:38.197Z,0.70
2022-09-28T12:18:54.977Z,0.60
2022-09-28T12:21:24.821Z,1.95
2022-09-28T12:24:00.659Z,0.63
2022-09-28T12:26:47.086Z,0.95
2022-09-28T12:29:38.716Z,1.15
2022-09-28T12:32:29.056Z,3.70
2022-09-28T12:34:57.948Z,0.80
2022-09-28T12:37:52.551Z,1.63
2022-09-28T12:40:47.073Z,0.80
2022-09-28T12:43:45.700Z,3.40
2022-09-28T12:46:47.617Z,1.88
2022-09-28T12:50:37.440Z,0.70
2022-09-28T12:53:19.942Z,1.75
2022-09-28T12:56:04.244Z,2.25
2022-09-28T12:58:45.655Z,1.38
2022-09-28T13:01:31.262Z,0.77
2022-09-28T13:04:44.879Z,3.75
2022-09-28T13:07:39.019Z,3.78
2022-09-28T13:10:45.887Z,1.73
2022-09-28T13:13:32.701Z,1.02
2022-09-28T13:16:43.201Z,1.10
2022-09-28T13:19:42.291Z,1.63
2022-09-28T13:22:45.447Z,0.90
2022-09-28T13:25:17.835Z,1.35
2022-09-28T13:28:15.463Z,1.15
2022-09-28T13:30:45.882Z,1.30
2022-09-28T13:33:26.244Z,0.50
2022-09-28T13:35:52.793Z,2.05
2022-09-28T13:38:19.223Z,2.58
2022-09-28T13:41:13.135Z,1.10
2022-09-28T13:43:48.800Z,0.50
2022-09-28T13:46:49.527Z,1.50
2022-09-28T13:49:56.503Z,1.77
2022-09-28T13:52:47.436Z,3.25
2022-09-28T13:55:33.373Z,1.48
2022-09-28T13:58:26.267Z,3.17
2022-09-28T14:01:04.790Z,4.85
2022-09-28T14:04:17.102Z,1.95
2022-09-28T14:07:36.272Z,1.20
2022-09-28T14:10:25.744Z,2.78
2022-09-28T14:12:54.343Z,0.80
2022-09-28T14:15:30.003Z,0.90
2022-09-28T14:18:26.674Z,0.88
2022-09-28T14:21:02.048Z,0.70
2022-09-28T14:23:59.001Z,4.15
2022-09-28T14:27:06.962Z,1.23
2022-09-28T14:29:39.816Z,1.83
2022-09-28T14:32:09.387Z,1.52
2022-09-28T14:34:47.102Z,2.85
2022-09-28T14:37:49.031Z,1.50
2022-09-28T14:40:49.632Z,1.08
2022-09-28T14:43:45.444Z,1.23
2022-09-28T14:46:12.813Z,1.50
2022-09-28T14:49:05.344Z,1.77
2022-09-28T14:51:35.413Z,3.08
2022-09-28T14:54:07.727Z,1.17
2022-09-28T14:56:45.693Z,1.77
2022-09-28T14:59:26.782Z,0.85
2022-09-28T15:02:37.191Z,1.77
2022-09-28T15:05:10.791Z,1.27
2022-09-28T15:07:49.463Z,0.73
2022-09-28T15:10:33.045Z,0.68
2022-09-28T15:13:05.296Z,1.10
2022-09-28T15:15:38.088Z,0.90
2022-09-28T15:18:19.197Z,2.60
2022-09-28T15:23:47.919Z,1.60
2022-09-28T15:26:34.848Z,1.17
2022-09-28T15:29:03.345Z,1.17
2022-09-28T15:31:36.020Z,1.50
2022-09-28T15:34:21.574Z,2.75
2022-09-28T15:36:48.463Z,1.48
2022-09-28T15:39:33.953Z,1.17
2022-09-28T15:42:00.705Z,2.90
2022-09-28T15:44:38.228Z,2.25
2022-09-28T15:47:26.421Z,2.40
2022-09-28T15:50:00.486Z,1.42
2022-09-28T15:53:02.985Z,1.88
2022-09-28T15:55:34.747Z,0.75
2022-09-28T15:58:06.163Z,6.20
2022-09-28T16:00:33.082Z,1.23
2022-09-28T16:03:08.901Z,2.95
2022-09-28T16:05:49.905Z,0.70
2022-09-28T16:08:37.337Z,1.20
2022-09-28T16:11:27.753Z,2.05
2022-09-28T16:14:20.983Z,1.10
2022-09-28T16:16:53.047Z,1.08
2022-09-28T16:19:26.278Z,2.15
2022-09-28T16:21:56.735Z,1.17
2022-09-28T16:24:30.462Z,1.92
2022-09-28T16:27:29.395Z,1.88
2022-09-28T16:30:28.662Z,1.65
2022-09-28T16:32:59.278Z,1.70
2022-09-28T16:35:39.998Z,2.83
2022-09-28T16:38:11.403Z,1.40
2022-09-28T16:40:42.432Z,4.18
2022-09-28T16:45:42.856Z,3.95
2022-09-28T16:48:19.225Z,2.03
2022-09-28T16:50:46.552Z,2.47
2022-09-28T16:53:35.541Z,2.60
2022-09-28T16:56:04.608Z,2.45
2022-09-28T16:58:31.866Z,2.55
2022-09-28T17:00:59.909Z,4.90
2022-09-28T17:03:28.237Z,6.55
2022-09-28T17:05:55.465Z,5.50
2022-09-28T17:08:25.524Z,4.22
2022-09-28T17:11:14.930Z,2.80
2022-09-28T17:16:15.368Z,1.92
2022-09-28T17:18:42.136Z,3.13
2022-09-28T17:21:17.194Z,2.75
2022-09-28T17:23:55.408Z,3.35
2022-09-28T17:26:30.553Z,3.00
2022-09-28T17:29:14.176Z,1.75
2022-09-28T17:31:46.121Z,2.95
2022-09-28T17:34:17.402Z,1.90
2022-09-28T17:36:57.417Z,1.92
2022-09-28T17:39:26.306Z,2.35
2022-09-28T17:42:03.963Z,2.92
2022-09-28T17:44:30.703Z,1.92
2022-09-28T17:47:00.647Z,3.45
2022-09-28T17:49:29.646Z,1.73
2022-09-28T17:51:56.259Z,2.88
2022-09-28T17:54:57.670Z,2.28
2022-09-28T18:00:13.325Z,3.22
2022-09-28T18:02:41.374Z,2.60
2022-09-28T18:05:10.399Z,6.53
2022-09-28T18:07:38.473Z,2.72
2022-09-28T18:10:06.963Z,4.97
2022-09-28T18:12:34.435Z,5.22
2022-09-28T18:15:01.201Z,3.95
2022-09-28T18:17:30.104Z,8.93
2022-09-28T18:19:57.101Z,9.50
2022-09-28T18:22:24.403Z,10.60
2022-09-28T18:24:51.080Z,8.45
2022-09-28T18:27:17.699Z,31.20
2022-09-28T18:29:44.402Z,11.40
2022-09-28T18:32:10.950Z,49.50
2022-09-28T18:34:38.575Z,20.58
2022-09-28T18:37:06.184Z,33.72
2022-09-28T18:39:35.042Z,26.05
2022-09-28T18:42:02.532Z,63.75
2022-09-28T18:44:29.190Z,63.83
2022-09-28T18:46:55.857Z,57.50
2022-09-28T18:49:23.768Z,40.47
2022-09-28T18:51:50.542Z,11.68
2022-09-28T18:54:38.415Z,17.90
2022-09-28T18:57:07.210Z,5.38
2022-09-28T18:59:34.031Z,5.38
2022-09-28T19:02:02.095Z,5.70
2022-09-28T19:04:28.928Z,5.50
2022-09-28T19:06:55.842Z,5.07
2022-09-28T19:09:24.620Z,5.35
2022-09-28T19:11:51.351Z,5.03
2022-09-28T19:14:18.170Z,5.20
2022-09-28T19:16:45.690Z,5.90
2022-09-28T19:19:17.504Z,6.57
2022-09-28T19:21:44.350Z,6.85
2022-09-28T19:24:17.693Z,3.92
2022-09-28T19:26:46.406Z,4.15
2022-09-28T19:29:14.458Z,5.88
2022-09-28T19:31:43.333Z,5.75
2022-09-28T19:34:13.396Z,6.75
2022-09-28T19:36:45.637Z,5.88
2022-09-28T19:39:15.646Z,4.30
2022-09-28T19:41:51.324Z,4.60
2022-09-28T19:44:25.374Z,5.22
2022-09-28T19:47:13.001Z,6.32
2022-09-28T19:49:40.646Z,5.53
2022-09-28T19:52:16.829Z,6.82
2022-09-28T19:55:00.382Z,5.00
2022-09-28T19:57:31.657Z,4.20
2022-09-28T20:00:02.720Z,5.22
2022-09-28T20:02:29.989Z,6.80
2022-09-28T20:04:56.691Z,5.18
2022-09-28T20:07:23.361Z,6.38
2022-09-28T20:09:49.915Z,5.70
2022-09-28T20:12:16.436Z,6.90
2022-09-28T20:14:43.062Z,6.30
2022-09-28T20:17:09.893Z,7.57
2022-09-28T20:19:36.617Z,7.47
2022-09-28T20:22:03.804Z,6.03
2022-09-28T20:24:31.569Z,7.90
2022-09-28T20:26:58.606Z,7.15
2022-09-28T20:29:25.246Z,6.28
2022-09-28T20:31:52.210Z,5.70
2022-09-28T20:34:19.358Z,5.75
2022-09-28T20:36:45.899Z,8.82
2022-09-28T20:39:13.043Z,7.35
2022-09-28T20:41:41.759Z,5.97
2022-09-28T20:44:08.375Z,9.18
2022-09-28T20:46:35.867Z,5.25
2022-09-28T20:49:04.479Z,8.57
2022-09-28T20:51:32.096Z,8.80
2022-09-28T20:53:59.723Z,6.60
2022-09-28T20:56:30.484Z,6.32
2022-09-28T20:58:57.562Z,8.82
2022-09-28T21:01:28.533Z,8.52
2022-09-28T21:03:58.728Z,6.25
2022-09-28T21:06:30.898Z,6.72
2022-09-28T21:08:58.331Z,8.25
2022-09-28T21:11:30.118Z,7.35
2022-09-28T21:14:00.485Z,6.85
2022-09-28T21:16:30.157Z,10.13
2022-09-28T21:18:59.399Z,11.23
2022-09-28T21:21:26.999Z,6.82
2022-09-28T21:23:55.565Z,6.70
2022-09-28T21:26:25.896Z,7.82
2022-09-28T21:28:59.390Z,7.57
2022-09-28T21:31:31.334Z,6.03
2022-09-28T21:33:58.554Z,6.07
2022-09-28T21:36:25.905Z,8.23
2022-09-28T21:38:54.110Z,8.02
2022-09-28T21:41:20.906Z,7.15
2022-09-28T21:43:47.488Z,6.20
2022-09-28T21:46:14.137Z,6.80
2022-09-28T21:48:40.992Z,7.13
2022-09-28T21:51:15.284Z,6.53
2022-09-28T21:53:42.712Z,6.35
2022-09-28T21:56:12.355Z,5.80
2022-09-28T21:58:40.917Z,7.05
2022-09-28T22:01:16.474Z,6.28
2022-09-28T22:03:47.356Z,6.35
2022-09-28T22:06:16.978Z,5.43
2022-09-28T22:08:43.939Z,7.32
2022-09-28T22:11:15.372Z,5.55
2022-09-28T22:13:49.274Z,4.82
2022-09-28T22:16:19.320Z,5.82
2022-09-28T22:18:46.368Z,4.55
2022-09-28T22:21:20.586Z,6.40
2022-09-28T22:23:50.058Z,6.47
2022-09-28T22:26:24.638Z,5.43
2022-09-28T22:28:55.410Z,6.97
2022-09-28T22:31:28.862Z,8.80
2022-09-28T22:33:57.047Z,5.47
2022-09-28T22:36:25.797Z,6.53
2022-09-28T22:38:54.339Z,6.32
2022-09-28T22:41:21.585Z,7.80
2022-09-28T22:43:50.727Z,5.93
2022-09-28T22:46:24.188Z,6.30
2022-09-28T22:48:57.856Z,6.97
2022-09-28T22:51:29.761Z,5.65
2022-09-28T22:53:56.983Z,6.53
2022-09-28T22:56:26.051Z,7.82
2022-09-28T22:58:53.773Z,8.00
2022-09-28T23:01:25.031Z,6.80
2022-09-28T23:03:54.353Z,10.15
2022-09-28T23:06:25.902Z,12.10
2022-09-28T23:08:53.269Z,8.55
2022-09-28T23:11:20.692Z,12.23
2022-09-28T23:13:56.500Z,8.25
2022-09-28T23:16:25.561Z,10.48
2022-09-28T23:18:54.591Z,8.55
2022-09-28T23:21:25.912Z,6.63
2022-09-28T23:24:03.358Z,7.85
2022-09-28T23:26:33.109Z,6.80
2022-09-28T23:29:00.296Z,7.07
2022-09-28T23:31:32.966Z,6.80
2022-09-28T23:34:03.287Z,6.88
2022-09-28T23:36:30.629Z,6.77
2022-09-28T23:38:58.298Z,7.50
2022-09-28T23:41:25.699Z,7.95
2022-09-28T23:43:52.313Z,6.28
2022-09-28T23:46:20.985Z,7.60
2022-09-28T23:48:49.236Z,7.63
2022-09-28T23:51:16.076Z,7.55
2022-09-28T23:53:43.271Z,8.98
2022-09-28T23:56:09.908Z,6.45
2022-09-28T23:58:36.482Z,6.95
